sensor_id;sensor_type;location;lat;lon;timestamp;temperature;humidity
4453;DHT22;2239;48.152;11.584;2023-11-22T00:01:51;7.30;99.90
4453;DHT22;2239;48.152;11.584;2023-11-22T00:04:16;7.30;99.90
4453;DHT22;2239;48.152;11.584;2023-11-22T00:06:43;7.30;99.90
4453;DHT22;2239;48.152;11.584;2023-11-22T00:09:09;7.30;99.90
4453;DHT22;2239;48.152;11.584;2023-11-22T00:11:35;7.30;99.90
4453;DHT22;2239;48.152;11.584;2023-11-22T00:14:00;7.20;99.90
4453;DHT22;2239;48.152;11.584;2023-11-22T00:16:26;7.20;99.90
4453;DHT22;2239;48.152;11.584;2023-11-22T00:18:52;7.20;99.90
4453;DHT22;2239;48.152;11.584;2023-11-22T00:21:18;7.20;99.90
4453;DHT22;2239;48.152;11.584;2023-11-22T00:23:45;7.20;99.90
4453;DHT22;2239;48.152;11.584;2023-11-22T00:26:12;7.20;99.90
4453;DHT22;2239;48.152;11.584;2023-11-22T00:28:37;7.20;99.90
4453;DHT22;2239;48.152;11.584;2023-11-22T00:31:03;7.20;99.90
4453;DHT22;2239;48.152;11.584;2023-11-22T00:33:28;7.20;99.90
4453;DHT22;2239;48.152;11.584;2023-11-22T00:35:54;7.20;99.90
4453;DHT22;2239;48.152;11.584;2023-11-22T00:38:22;7.10;99.90
4453;DHT22;2239;48.152;11.584;2023-11-22T00:40:47;7.10;99.90
4453;DHT22;2239;48.152;11.584;2023-11-22T00:43:13;7.10;99.90
4453;DHT22;2239;48.152;11.584;2023-11-22T00:45:38;7.10;99.90
4453;DHT22;2239;48.152;11.584;2023-11-22T00:48:04;7.00;99.90
4453;DHT22;2239;48.152;11.584;2023-11-22T00:50:29;7.00;99.90
4453;DHT22;2239;48.152;11.584;2023-11-22T00:52:55;6.90;99.90
4453;DHT22;2239;48.152;11.584;2023-11-22T00:55:20;6.90;99.90
4453;DHT22;2239;48.152;11.584;2023-11-22T00:57:46;6.80;99.90
4453;DHT22;2239;48.152;11.584;2023-11-22T01:00:12;6.80;99.90
4453;DHT22;2239;48.152;11.584;2023-11-22T01:02:40;6.80;99.90
4453;DHT22;2239;48.152;11.584;2023-11-22T01:05:07;6.80;99.90
4453;DHT22;2239;48.152;11.584;2023-11-22T01:07:42;6.80;99.90
4453;DHT22;2239;48.152;11.584;2023-11-22T01:10:08;6.80;99.90
4453;DHT22;2239;48.152;11.584;2023-11-22T01:12:35;6.70;99.90
4453;DHT22;2239;48.152;11.584;2023-11-22T01:15:01;6.70;99.90
4453;DHT22;2239;48.152;11.584;2023-11-22T01:17:26;6.70;99.90
4453;DHT22;2239;48.152;11.584;2023-11-22T01:19:52;6.60;99.90
4453;DHT22;2239;48.152;11.584;2023-11-22T01:22:17;6.60;99.90
4453;DHT22;2239;48.152;11.584;2023-11-22T01:24:44;6.60;99.90
4453;DHT22;2239;48.152;11.584;2023-11-22T01:27:09;6.60;99.90
4453;DHT22;2239;48.152;11.584;2023-11-22T01:29:35;6.50;99.90
4453;DHT22;2239;48.152;11.584;2023-11-22T01:32:01;6.50;99.90
4453;DHT22;2239;48.152;11.584;2023-11-22T01:34:26;6.50;99.90
4453;DHT22;2239;48.152;11.584;2023-11-22T01:36:52;6.50;99.90
4453;DHT22;2239;48.152;11.584;2023-11-22T01:39:18;6.50;99.90
4453;DHT22;2239;48.152;11.584;2023-11-22T01:41:47;6.50;99.90
4453;DHT22;2239;48.152;11.584;2023-11-22T01:44:15;6.50;99.90
4453;DHT22;2239;48.152;11.584;2023-11-22T01:46:41;6.50;99.90
4453;DHT22;2239;48.152;11.584;2023-11-22T01:49:09;6.50;99.90
4453;DHT22;2239;48.152;11.584;2023-11-22T01:51:35;6.50;99.90
4453;DHT22;2239;48.152;11.584;2023-11-22T01:54:01;6.60;99.90
4453;DHT22;2239;48.152;11.584;2023-11-22T01:56:27;6.60;99.90
4453;DHT22;2239;48.152;11.584;2023-11-22T01:58:56;6.60;99.90
4453;DHT22;2239;48.152;11.584;2023-11-22T02:01:23;6.70;99.90
4453;DHT22;2239;48.152;11.584;2023-11-22T02:03:49;6.60;99.90
4453;DHT22;2239;48.152;11.584;2023-11-22T02:06:17;6.60;99.90
4453;DHT22;2239;48.152;11.584;2023-11-22T02:08:43;6.50;99.90
4453;DHT22;2239;48.152;11.584;2023-11-22T02:11:09;6.20;99.90
4453;DHT22;2239;48.152;11.584;2023-11-22T02:13:34;5.80;99.90
4453;DHT22;2239;48.152;11.584;2023-11-22T02:16:02;5.50;99.90
4453;DHT22;2239;48.152;11.584;2023-11-22T02:18:28;5.20;99.90
4453;DHT22;2239;48.152;11.584;2023-11-22T02:20:54;5.00;99.90
4453;DHT22;2239;48.152;11.584;2023-11-22T02:23:19;4.80;99.90
4453;DHT22;2239;48.152;11.584;2023-11-22T02:25:45;4.60;99.90
4453;DHT22;2239;48.152;11.584;2023-11-22T02:28:13;4.60;99.90
4453;DHT22;2239;48.152;11.584;2023-11-22T02:30:39;4.60;99.90
4453;DHT22;2239;48.152;11.584;2023-11-22T02:33:05;4.50;99.90
4453;DHT22;2239;48.152;11.584;2023-11-22T02:35:31;4.50;99.90
4453;DHT22;2239;48.152;11.584;2023-11-22T02:37:58;4.40;99.90
4453;DHT22;2239;48.152;11.584;2023-11-22T02:40:24;4.30;99.90
4453;DHT22;2239;48.152;11.584;2023-11-22T02:42:51;4.30;99.90
4453;DHT22;2239;48.152;11.584;2023-11-22T02:45:19;4.20;99.90
4453;DHT22;2239;48.152;11.584;2023-11-22T02:47:45;4.20;99.90
4453;DHT22;2239;48.152;11.584;2023-11-22T02:50:12;4.10;99.90
4453;DHT22;2239;48.152;11.584;2023-11-22T02:52:38;4.10;99.90
4453;DHT22;2239;48.152;11.584;2023-11-22T02:55:04;4.10;99.90
4453;DHT22;2239;48.152;11.584;2023-11-22T02:57:32;4.10;99.90
4453;DHT22;2239;48.152;11.584;2023-11-22T02:59:58;4.10;99.90
4453;DHT22;2239;48.152;11.584;2023-11-22T03:02:24;4.00;99.90
4453;DHT22;2239;48.152;11.584;2023-11-22T03:04:50;4.00;99.90
4453;DHT22;2239;48.152;11.584;2023-11-22T03:07:17;4.00;99.90
4453;DHT22;2239;48.152;11.584;2023-11-22T03:09:43;4.00;99.90
4453;DHT22;2239;48.152;11.584;2023-11-22T03:12:11;4.00;99.90
4453;DHT22;2239;48.152;11.584;2023-11-22T03:14:38;3.90;99.90
4453;DHT22;2239;48.152;11.584;2023-11-22T03:17:04;3.70;99.90
4453;DHT22;2239;48.152;11.584;2023-11-22T03:19:30;3.70;99.90
4453;DHT22;2239;48.152;11.584;2023-11-22T03:21:56;3.70;99.90
4453;DHT22;2239;48.152;11.584;2023-11-22T03:24:22;3.60;99.90
4453;DHT22;2239;48.152;11.584;2023-11-22T03:26:47;3.60;99.90
4453;DHT22;2239;48.152;11.584;2023-11-22T03:29:14;3.70;99.90
4453;DHT22;2239;48.152;11.584;2023-11-22T03:31:41;3.60;99.90
4453;DHT22;2239;48.152;11.584;2023-11-22T03:34:07;3.60;99.90
4453;DHT22;2239;48.152;11.584;2023-11-22T03:36:33;3.60;99.90
4453;DHT22;2239;48.152;11.584;2023-11-22T03:38:59;3.50;99.90
4453;DHT22;2239;48.152;11.584;2023-11-22T03:41:24;3.50;99.90
4453;DHT22;2239;48.152;11.584;2023-11-22T03:43:50;3.40;99.90
4453;DHT22;2239;48.152;11.584;2023-11-22T03:46:15;3.40;99.90
4453;DHT22;2239;48.152;11.584;2023-11-22T03:48:41;3.50;99.90
4453;DHT22;2239;48.152;11.584;2023-11-22T03:51:06;3.50;99.90
4453;DHT22;2239;48.152;11.584;2023-11-22T03:53:32;3.50;99.90
4453;DHT22;2239;48.152;11.584;2023-11-22T03:55:57;3.70;99.90
4453;DHT22;2239;48.152;11.584;2023-11-22T03:58:23;3.60;99.90
4453;DHT22;2239;48.152;11.584;2023-11-22T04:00:48;3.70;99.90
4453;DHT22;2239;48.152;11.584;2023-11-22T04:03:14;3.70;99.90
4453;DHT22;2239;48.152;11.584;2023-11-22T04:05:39;3.80;99.90
4453;DHT22;2239;48.152;11.584;2023-11-22T04:08:06;3.80;99.90
4453;DHT22;2239;48.152;11.584;2023-11-22T04:10:31;3.80;99.90
4453;DHT22;2239;48.152;11.584;2023-11-22T04:12:57;3.70;99.90
4453;DHT22;2239;48.152;11.584;2023-11-22T04:15:22;3.60;99.90
4453;DHT22;2239;48.152;11.584;2023-11-22T04:17:48;3.50;99.90
4453;DHT22;2239;48.152;11.584;2023-11-22T04:20:14;3.50;99.90
4453;DHT22;2239;48.152;11.584;2023-11-22T04:22:43;3.50;99.90
4453;DHT22;2239;48.152;11.584;2023-11-22T04:25:10;3.60;99.90
4453;DHT22;2239;48.152;11.584;2023-11-22T04:27:39;3.60;99.90
4453;DHT22;2239;48.152;11.584;2023-11-22T04:30:06;3.60;99.90
4453;DHT22;2239;48.152;11.584;2023-11-22T04:32:35;3.80;99.90
4453;DHT22;2239;48.152;11.584;2023-11-22T04:35:02;3.90;99.90
4453;DHT22;2239;48.152;11.584;2023-11-22T04:37:29;3.90;99.90
4453;DHT22;2239;48.152;11.584;2023-11-22T04:39:57;3.80;99.90
4453;DHT22;2239;48.152;11.584;2023-11-22T04:42:22;3.90;99.90
4453;DHT22;2239;48.152;11.584;2023-11-22T04:44:49;3.80;99.90
4453;DHT22;2239;48.152;11.584;2023-11-22T04:47:14;3.90;99.90
4453;DHT22;2239;48.152;11.584;2023-11-22T04:49:40;3.90;99.90
4453;DHT22;2239;48.152;11.584;2023-11-22T04:52:05;3.90;99.90
4453;DHT22;2239;48.152;11.584;2023-11-22T04:54:31;4.00;99.90
4453;DHT22;2239;48.152;11.584;2023-11-22T04:56:58;3.90;99.90
4453;DHT22;2239;48.152;11.584;2023-11-22T04:59:23;3.90;99.90
4453;DHT22;2239;48.152;11.584;2023-11-22T05:01:49;3.90;99.90
4453;DHT22;2239;48.152;11.584;2023-11-22T05:04:15;3.90;99.90
4453;DHT22;2239;48.152;11.584;2023-11-22T05:06:40;3.90;99.90
4453;DHT22;2239;48.152;11.584;2023-11-22T05:09:06;3.90;99.90
4453;DHT22;2239;48.152;11.584;2023-11-22T05:11:31;3.90;99.90
4453;DHT22;2239;48.152;11.584;2023-11-22T05:13:57;3.90;99.90
4453;DHT22;2239;48.152;11.584;2023-11-22T05:16:23;3.90;99.90
4453;DHT22;2239;48.152;11.584;2023-11-22T05:18:49;3.90;99.90
4453;DHT22;2239;48.152;11.584;2023-11-22T05:21:15;3.80;99.90
4453;DHT22;2239;48.152;11.584;2023-11-22T05:23:41;3.90;99.90
4453;DHT22;2239;48.152;11.584;2023-11-22T05:26:06;3.90;99.90
4453;DHT22;2239;48.152;11.584;2023-11-22T05:28:33;4.00;99.90
4453;DHT22;2239;48.152;11.584;2023-11-22T05:30:59;4.00;99.90
4453;DHT22;2239;48.152;11.584;2023-11-22T05:33:24;3.90;99.90
4453;DHT22;2239;48.152;11.584;2023-11-22T05:35:50;3.80;99.90
4453;DHT22;2239;48.152;11.584;2023-11-22T05:38:15;3.80;99.90
4453;DHT22;2239;48.152;11.584;2023-11-22T05:40:41;3.80;99.90
4453;DHT22;2239;48.152;11.584;2023-11-22T05:43:08;3.80;99.90
4453;DHT22;2239;48.152;11.584;2023-11-22T05:45:35;3.80;99.90
4453;DHT22;2239;48.152;11.584;2023-11-22T05:48:01;3.80;99.90
4453;DHT22;2239;48.152;11.584;2023-11-22T05:50:26;3.80;99.90
4453;DHT22;2239;48.152;11.584;2023-11-22T05:52:52;3.70;99.90
4453;DHT22;2239;48.152;11.584;2023-11-22T05:55:18;3.70;99.90
4453;DHT22;2239;48.152;11.584;2023-11-22T05:57:44;3.70;99.90
4453;DHT22;2239;48.152;11.584;2023-11-22T06:00:10;3.60;99.90
4453;DHT22;2239;48.152;11.584;2023-11-22T06:02:35;3.60;99.90
4453;DHT22;2239;48.152;11.584;2023-11-22T06:05:02;3.60;99.90
4453;DHT22;2239;48.152;11.584;2023-11-22T06:07:28;3.60;99.90
4453;DHT22;2239;48.152;11.584;2023-11-22T06:09:54;3.60;99.90
4453;DHT22;2239;48.152;11.584;2023-11-22T06:12:21;3.60;99.90
4453;DHT22;2239;48.152;11.584;2023-11-22T06:14:47;3.60;99.90
4453;DHT22;2239;48.152;11.584;2023-11-22T06:17:13;3.60;99.90
4453;DHT22;2239;48.152;11.584;2023-11-22T06:19:39;3.50;99.90
4453;DHT22;2239;48.152;11.584;2023-11-22T06:22:06;3.50;99.90
4453;DHT22;2239;48.152;11.584;2023-11-22T06:24:32;3.60;99.90
4453;DHT22;2239;48.152;11.584;2023-11-22T06:26:58;3.50;99.90
4453;DHT22;2239;48.152;11.584;2023-11-22T06:29:24;3.50;99.90
4453;DHT22;2239;48.152;11.584;2023-11-22T06:31:49;3.50;99.90
4453;DHT22;2239;48.152;11.584;2023-11-22T06:34:15;3.50;99.90
4453;DHT22;2239;48.152;11.584;2023-11-22T06:36:41;3.40;99.90
4453;DHT22;2239;48.152;11.584;2023-11-22T06:39:06;3.40;99.90
4453;DHT22;2239;48.152;11.584;2023-11-22T06:41:34;3.30;99.90
4453;DHT22;2239;48.152;11.584;2023-11-22T06:44:00;3.40;99.90
4453;DHT22;2239;48.152;11.584;2023-11-22T06:46:25;3.40;99.90
4453;DHT22;2239;48.152;11.584;2023-11-22T06:48:51;3.40;99.90
4453;DHT22;2239;48.152;11.584;2023-11-22T06:51:17;3.40;99.90
4453;DHT22;2239;48.152;11.584;2023-11-22T06:53:44;3.40;99.90
4453;DHT22;2239;48.152;11.584;2023-11-22T06:56:10;3.40;99.90
4453;DHT22;2239;48.152;11.584;2023-11-22T06:58:36;3.30;99.90
4453;DHT22;2239;48.152;11.584;2023-11-22T07:01:02;3.30;99.90
4453;DHT22;2239;48.152;11.584;2023-11-22T07:03:27;3.30;99.90
4453;DHT22;2239;48.152;11.584;2023-11-22T07:05:53;3.30;99.90
4453;DHT22;2239;48.152;11.584;2023-11-22T07:08:18;3.30;99.90
4453;DHT22;2239;48.152;11.584;2023-11-22T07:10:45;3.30;99.90
4453;DHT22;2239;48.152;11.584;2023-11-22T07:13:11;3.30;99.90
4453;DHT22;2239;48.152;11.584;2023-11-22T07:15:38;3.20;99.90
4453;DHT22;2239;48.152;11.584;2023-11-22T07:18:04;3.20;99.90
4453;DHT22;2239;48.152;11.584;2023-11-22T07:20:30;3.30;99.90
4453;DHT22;2239;48.152;11.584;2023-11-22T07:22:56;3.30;99.90
4453;DHT22;2239;48.152;11.584;2023-11-22T07:25:25;3.30;99.90
4453;DHT22;2239;48.152;11.584;2023-11-22T07:27:52;3.30;99.90
4453;DHT22;2239;48.152;11.584;2023-11-22T07:30:19;3.40;99.90
4453;DHT22;2239;48.152;11.584;2023-11-22T07:32:45;3.40;99.90
4453;DHT22;2239;48.152;11.584;2023-11-22T07:35:11;3.40;99.90
4453;DHT22;2239;48.152;11.584;2023-11-22T07:37:38;3.40;99.90
4453;DHT22;2239;48.152;11.584;2023-11-22T07:40:10;3.50;99.90
4453;DHT22;2239;48.152;11.584;2023-11-22T07:42:39;3.50;99.90
4453;DHT22;2239;48.152;11.584;2023-11-22T07:45:07;3.60;99.90
4453;DHT22;2239;48.152;11.584;2023-11-22T07:47:32;3.60;99.90
4453;DHT22;2239;48.152;11.584;2023-11-22T07:49:58;3.70;99.90
4453;DHT22;2239;48.152;11.584;2023-11-22T07:52:24;3.70;99.90
4453;DHT22;2239;48.152;11.584;2023-11-22T07:54:58;3.60;99.90
4453;DHT22;2239;48.152;11.584;2023-11-22T07:57:24;3.60;99.90
4453;DHT22;2239;48.152;11.584;2023-11-22T07:59:50;3.60;99.90
4453;DHT22;2239;48.152;11.584;2023-11-22T08:02:20;3.70;99.90
4453;DHT22;2239;48.152;11.584;2023-11-22T08:04:45;3.70;99.90
4453;DHT22;2239;48.152;11.584;2023-11-22T08:07:13;3.60;99.90
4453;DHT22;2239;48.152;11.584;2023-11-22T08:09:40;3.60;99.90
4453;DHT22;2239;48.152;11.584;2023-11-22T08:12:07;3.50;99.90
4453;DHT22;2239;48.152;11.584;2023-11-22T08:14:33;3.50;99.90
4453;DHT22;2239;48.152;11.584;2023-11-22T08:16:58;3.60;99.90
4453;DHT22;2239;48.152;11.584;2023-11-22T08:19:24;3.60;99.90
4453;DHT22;2239;48.152;11.584;2023-11-22T08:21:50;3.60;99.90
4453;DHT22;2239;48.152;11.584;2023-11-22T08:24:16;3.50;99.90
4453;DHT22;2239;48.152;11.584;2023-11-22T08:26:42;3.50;99.90
4453;DHT22;2239;48.152;11.584;2023-11-22T08:29:08;3.50;99.90
4453;DHT22;2239;48.152;11.584;2023-11-22T08:31:34;3.40;99.90
4453;DHT22;2239;48.152;11.584;2023-11-22T08:34:01;3.40;99.90
4453;DHT22;2239;48.152;11.584;2023-11-22T08:36:29;3.40;99.90
4453;DHT22;2239;48.152;11.584;2023-11-22T08:38:56;3.40;99.90
4453;DHT22;2239;48.152;11.584;2023-11-22T08:41:23;3.40;99.90
4453;DHT22;2239;48.152;11.584;2023-11-22T08:43:49;3.40;99.90
4453;DHT22;2239;48.152;11.584;2023-11-22T08:46:14;3.40;99.90
4453;DHT22;2239;48.152;11.584;2023-11-22T08:48:40;3.50;99.90
4453;DHT22;2239;48.152;11.584;2023-11-22T08:51:06;3.50;99.90
4453;DHT22;2239;48.152;11.584;2023-11-22T08:53:33;3.50;99.90
4453;DHT22;2239;48.152;11.584;2023-11-22T08:55:58;3.50;99.90
4453;DHT22;2239;48.152;11.584;2023-11-22T08:58:24;3.50;99.90
4453;DHT22;2239;48.152;11.584;2023-11-22T09:00:50;3.40;99.90
4453;DHT22;2239;48.152;11.584;2023-11-22T09:03:15;3.10;99.90
4453;DHT22;2239;48.152;11.584;2023-11-22T09:05:45;3.10;99.90
4453;DHT22;2239;48.152;11.584;2023-11-22T09:08:11;3.10;99.90
4453;DHT22;2239;48.152;11.584;2023-11-22T09:10:41;3.00;99.90
4453;DHT22;2239;48.152;11.584;2023-11-22T09:13:08;3.00;99.90
4453;DHT22;2239;48.152;11.584;2023-11-22T09:15:34;3.10;99.90
4453;DHT22;2239;48.152;11.584;2023-11-22T09:18:00;3.20;99.90
4453;DHT22;2239;48.152;11.584;2023-11-22T09:20:26;3.30;99.90
4453;DHT22;2239;48.152;11.584;2023-11-22T09:22:53;3.40;99.90
4453;DHT22;2239;48.152;11.584;2023-11-22T09:25:20;3.50;99.90
4453;DHT22;2239;48.152;11.584;2023-11-22T09:27:48;3.60;99.90
4453;DHT22;2239;48.152;11.584;2023-11-22T09:30:20;3.70;99.90
4453;DHT22;2239;48.152;11.584;2023-11-22T09:33:01;3.60;99.90
4453;DHT22;2239;48.152;11.584;2023-11-22T09:35:27;3.60;99.90
4453;DHT22;2239;48.152;11.584;2023-11-22T09:37:55;3.60;99.90
4453;DHT22;2239;48.152;11.584;2023-11-22T09:40:25;3.60;99.90
4453;DHT22;2239;48.152;11.584;2023-11-22T09:42:52;3.50;99.90
4453;DHT22;2239;48.152;11.584;2023-11-22T09:45:19;3.40;99.90
4453;DHT22;2239;48.152;11.584;2023-11-22T09:47:46;3.50;99.90
4453;DHT22;2239;48.152;11.584;2023-11-22T09:50:19;3.50;99.90
4453;DHT22;2239;48.152;11.584;2023-11-22T09:52:51;3.60;99.90
4453;DHT22;2239;48.152;11.584;2023-11-22T09:55:20;3.50;99.90
4453;DHT22;2239;48.152;11.584;2023-11-22T09:57:46;3.60;99.90
4453;DHT22;2239;48.152;11.584;2023-11-22T10:00:12;3.50;99.90
4453;DHT22;2239;48.152;11.584;2023-11-22T10:02:42;3.50;99.90
4453;DHT22;2239;48.152;11.584;2023-11-22T10:05:07;3.40;99.90
4453;DHT22;2239;48.152;11.584;2023-11-22T10:07:37;3.50;99.90
4453;DHT22;2239;48.152;11.584;2023-11-22T10:10:04;3.50;99.90
4453;DHT22;2239;48.152;11.584;2023-11-22T10:12:32;3.50;99.90
4453;DHT22;2239;48.152;11.584;2023-11-22T10:15:18;3.30;99.90
4453;DHT22;2239;48.152;11.584;2023-11-22T10:17:57;3.20;99.90
4453;DHT22;2239;48.152;11.584;2023-11-22T10:20:41;3.20;99.90
4453;DHT22;2239;48.152;11.584;2023-11-22T10:23:09;3.20;99.90
4453;DHT22;2239;48.152;11.584;2023-11-22T10:25:36;3.10;99.90
4453;DHT22;2239;48.152;11.584;2023-11-22T10:28:02;3.10;99.90
4453;DHT22;2239;48.152;11.584;2023-11-22T10:30:27;3.20;99.90
4453;DHT22;2239;48.152;11.584;2023-11-22T10:32:54;3.20;99.90
4453;DHT22;2239;48.152;11.584;2023-11-22T10:35:21;3.20;99.90
4453;DHT22;2239;48.152;11.584;2023-11-22T10:37:48;3.30;99.90
4453;DHT22;2239;48.152;11.584;2023-11-22T10:40:17;3.40;99.90
4453;DHT22;2239;48.152;11.584;2023-11-22T10:42:48;3.50;99.90
4453;DHT22;2239;48.152;11.584;2023-11-22T10:45:17;3.50;99.90
4453;DHT22;2239;48.152;11.584;2023-11-22T10:47:44;3.60;99.90
4453;DHT22;2239;48.152;11.584;2023-11-22T10:50:11;3.70;99.90
4453;DHT22;2239;48.152;11.584;2023-11-22T10:52:41;3.70;99.90
4453;DHT22;2239;48.152;11.584;2023-11-22T10:55:10;3.70;99.90
4453;DHT22;2239;48.152;11.584;2023-11-22T10:57:42;3.60;99.90
4453;DHT22;2239;48.152;11.584;2023-11-22T11:00:10;3.60;99.90
4453;DHT22;2239;48.152;11.584;2023-11-22T11:02:41;3.50;99.90
4453;DHT22;2239;48.152;11.584;2023-11-22T11:05:24;3.50;99.90
4453;DHT22;2239;48.152;11.584;2023-11-22T11:08:07;3.40;99.90
4453;DHT22;2239;48.152;11.584;2023-11-22T11:10:43;3.50;99.90
4453;DHT22;2239;48.152;11.584;2023-11-22T11:13:11;3.50;99.90
4453;DHT22;2239;48.152;11.584;2023-11-22T11:15:39;3.50;99.90
4453;DHT22;2239;48.152;11.584;2023-11-22T11:18:07;3.40;99.90
4453;DHT22;2239;48.152;11.584;2023-11-22T11:20:56;3.50;99.90
4453;DHT22;2239;48.152;11.584;2023-11-22T11:23:23;3.50;99.90
4453;DHT22;2239;48.152;11.584;2023-11-22T11:25:54;3.60;99.90
4453;DHT22;2239;48.152;11.584;2023-11-22T11:28:20;3.60;99.90
4453;DHT22;2239;48.152;11.584;2023-11-22T11:30:50;3.60;99.90
4453;DHT22;2239;48.152;11.584;2023-11-22T11:33:26;3.60;99.90
4453;DHT22;2239;48.152;11.584;2023-11-22T11:35:52;3.60;99.90
4453;DHT22;2239;48.152;11.584;2023-11-22T11:38:21;3.70;99.90
4453;DHT22;2239;48.152;11.584;2023-11-22T11:40:48;3.90;99.90
4453;DHT22;2239;48.152;11.584;2023-11-22T11:43:14;4.00;99.90
4453;DHT22;2239;48.152;11.584;2023-11-22T11:45:42;4.00;99.90
4453;DHT22;2239;48.152;11.584;2023-11-22T11:48:16;4.00;99.90
4453;DHT22;2239;48.152;11.584;2023-11-22T11:50:42;4.10;99.90
4453;DHT22;2239;48.152;11.584;2023-11-22T11:53:09;4.00;99.90
4453;DHT22;2239;48.152;11.584;2023-11-22T11:55:36;4.00;99.90
4453;DHT22;2239;48.152;11.584;2023-11-22T11:58:08;3.80;99.90
4453;DHT22;2239;48.152;11.584;2023-11-22T12:00:35;3.80;99.90
4453;DHT22;2239;48.152;11.584;2023-11-22T12:03:02;3.70;99.90
4453;DHT22;2239;48.152;11.584;2023-11-22T12:05:28;3.70;99.90
4453;DHT22;2239;48.152;11.584;2023-11-22T12:07:54;3.80;99.90
4453;DHT22;2239;48.152;11.584;2023-11-22T12:10:23;3.80;99.90
4453;DHT22;2239;48.152;11.584;2023-11-22T12:12:49;3.80;99.90
4453;DHT22;2239;48.152;11.584;2023-11-22T12:15:15;3.90;99.90
4453;DHT22;2239;48.152;11.584;2023-11-22T12:17:41;3.90;99.90
4453;DHT22;2239;48.152;11.584;2023-11-22T12:20:16;3.90;99.90
4453;DHT22;2239;48.152;11.584;2023-11-22T12:22:43;3.90;99.90
4453;DHT22;2239;48.152;11.584;2023-11-22T12:25:11;3.90;99.90
4453;DHT22;2239;48.152;11.584;2023-11-22T12:27:44;3.90;99.90
4453;DHT22;2239;48.152;11.584;2023-11-22T12:30:33;3.70;99.90
4453;DHT22;2239;48.152;11.584;2023-11-22T12:33:06;3.60;99.90
4453;DHT22;2239;48.152;11.584;2023-11-22T12:35:35;3.60;99.90
4453;DHT22;2239;48.152;11.584;2023-11-22T12:38:02;3.60;99.90
4453;DHT22;2239;48.152;11.584;2023-11-22T12:40:29;3.60;99.90
4453;DHT22;2239;48.152;11.584;2023-11-22T12:42:57;3.70;99.90
4453;DHT22;2239;48.152;11.584;2023-11-22T12:45:24;3.80;99.90
4453;DHT22;2239;48.152;11.584;2023-11-22T12:47:53;3.70;99.90
4453;DHT22;2239;48.152;11.584;2023-11-22T12:50:37;3.80;99.90
4453;DHT22;2239;48.152;11.584;2023-11-22T12:53:23;3.90;99.90
4453;DHT22;2239;48.152;11.584;2023-11-22T12:55:51;3.90;99.90
4453;DHT22;2239;48.152;11.584;2023-11-22T12:58:24;3.80;99.90
4453;DHT22;2239;48.152;11.584;2023-11-22T13:00:52;3.80;99.90
4453;DHT22;2239;48.152;11.584;2023-11-22T13:03:26;3.90;99.90
4453;DHT22;2239;48.152;11.584;2023-11-22T13:05:52;3.80;99.90
4453;DHT22;2239;48.152;11.584;2023-11-22T13:08:19;3.70;99.90
4453;DHT22;2239;48.152;11.584;2023-11-22T13:10:49;3.70;99.90
4453;DHT22;2239;48.152;11.584;2023-11-22T13:13:24;3.50;99.90
4453;DHT22;2239;48.152;11.584;2023-11-22T13:15:51;3.60;99.90
4453;DHT22;2239;48.152;11.584;2023-11-22T13:18:17;3.60;99.90
4453;DHT22;2239;48.152;11.584;2023-11-22T13:20:43;3.50;99.90
4453;DHT22;2239;48.152;11.584;2023-11-22T13:23:10;3.50;99.90
4453;DHT22;2239;48.152;11.584;2023-11-22T13:25:35;3.50;99.90
4453;DHT22;2239;48.152;11.584;2023-11-22T13:28:02;3.40;99.90
4453;DHT22;2239;48.152;11.584;2023-11-22T13:30:28;3.40;99.90
4453;DHT22;2239;48.152;11.584;2023-11-22T13:32:55;3.40;99.90
4453;DHT22;2239;48.152;11.584;2023-11-22T13:35:27;3.40;99.90
4453;DHT22;2239;48.152;11.584;2023-11-22T13:37:59;3.30;99.90
4453;DHT22;2239;48.152;11.584;2023-11-22T13:40:27;3.30;99.90
4453;DHT22;2239;48.152;11.584;2023-11-22T13:42:56;3.30;99.90
4453;DHT22;2239;48.152;11.584;2023-11-22T13:45:22;3.40;99.90
4453;DHT22;2239;48.152;11.584;2023-11-22T13:47:53;3.40;99.90
4453;DHT22;2239;48.152;11.584;2023-11-22T13:50:26;3.50;99.90
4453;DHT22;2239;48.152;11.584;2023-11-22T13:52:53;3.50;99.90
4453;DHT22;2239;48.152;11.584;2023-11-22T13:55:19;3.50;99.90
4453;DHT22;2239;48.152;11.584;2023-11-22T13:57:52;3.50;99.90
4453;DHT22;2239;48.152;11.584;2023-11-22T14:00:19;3.50;99.90
4453;DHT22;2239;48.152;11.584;2023-11-22T14:02:46;3.60;99.90
4453;DHT22;2239;48.152;11.584;2023-11-22T14:05:11;3.50;99.90
4453;DHT22;2239;48.152;11.584;2023-11-22T14:07:38;3.50;99.90
4453;DHT22;2239;48.152;11.584;2023-11-22T14:10:04;3.50;99.90
4453;DHT22;2239;48.152;11.584;2023-11-22T14:12:31;3.50;99.90
4453;DHT22;2239;48.152;11.584;2023-11-22T14:14:58;3.50;99.90
4453;DHT22;2239;48.152;11.584;2023-11-22T14:17:24;3.50;99.90
4453;DHT22;2239;48.152;11.584;2023-11-22T14:19:51;3.50;99.90
4453;DHT22;2239;48.152;11.584;2023-11-22T14:22:17;3.50;99.90
4453;DHT22;2239;48.152;11.584;2023-11-22T14:24:43;3.40;99.90
4453;DHT22;2239;48.152;11.584;2023-11-22T14:27:11;3.50;99.90
4453;DHT22;2239;48.152;11.584;2023-11-22T14:29:37;3.60;99.90
4453;DHT22;2239;48.152;11.584;2023-11-22T14:32:03;3.60;99.90
4453;DHT22;2239;48.152;11.584;2023-11-22T14:34:29;3.60;99.90
4453;DHT22;2239;48.152;11.584;2023-11-22T14:36:54;3.60;99.90
4453;DHT22;2239;48.152;11.584;2023-11-22T14:39:20;3.60;99.90
4453;DHT22;2239;48.152;11.584;2023-11-22T14:41:46;3.70;99.90
4453;DHT22;2239;48.152;11.584;2023-11-22T14:44:12;3.70;99.90
4453;DHT22;2239;48.152;11.584;2023-11-22T14:46:37;3.70;99.90
4453;DHT22;2239;48.152;11.584;2023-11-22T14:49:03;3.70;99.90
4453;DHT22;2239;48.152;11.584;2023-11-22T14:51:29;3.80;99.90
4453;DHT22;2239;48.152;11.584;2023-11-22T14:53:55;3.70;99.90
4453;DHT22;2239;48.152;11.584;2023-11-22T14:56:21;3.70;99.90
4453;DHT22;2239;48.152;11.584;2023-11-22T14:58:47;3.60;99.90
4453;DHT22;2239;48.152;11.584;2023-11-22T15:01:22;3.50;99.90
4453;DHT22;2239;48.152;11.584;2023-11-22T15:03:48;3.40;99.90
4453;DHT22;2239;48.152;11.584;2023-11-22T15:06:17;3.30;99.90
4453;DHT22;2239;48.152;11.584;2023-11-22T15:08:43;3.30;99.90
4453;DHT22;2239;48.152;11.584;2023-11-22T15:11:08;3.30;99.90
4453;DHT22;2239;48.152;11.584;2023-11-22T15:13:35;3.20;99.90
4453;DHT22;2239;48.152;11.584;2023-11-22T15:16:03;3.20;99.90
4453;DHT22;2239;48.152;11.584;2023-11-22T15:18:29;3.30;99.90
4453;DHT22;2239;48.152;11.584;2023-11-22T15:20:56;3.40;99.90
4453;DHT22;2239;48.152;11.584;2023-11-22T15:23:21;3.40;99.90
4453;DHT22;2239;48.152;11.584;2023-11-22T15:25:47;3.50;99.90
4453;DHT22;2239;48.152;11.584;2023-11-22T15:28:13;3.60;99.90
4453;DHT22;2239;48.152;11.584;2023-11-22T15:30:47;3.60;99.90
4453;DHT22;2239;48.152;11.584;2023-11-22T15:33:17;3.50;99.90
4453;DHT22;2239;48.152;11.584;2023-11-22T15:35:44;3.50;99.90
4453;DHT22;2239;48.152;11.584;2023-11-22T15:38:10;3.50;99.90
4453;DHT22;2239;48.152;11.584;2023-11-22T15:40:35;3.50;99.90
4453;DHT22;2239;48.152;11.584;2023-11-22T15:43:01;3.50;99.90
4453;DHT22;2239;48.152;11.584;2023-11-22T15:45:26;3.40;99.90
4453;DHT22;2239;48.152;11.584;2023-11-22T15:47:52;3.40;99.90
4453;DHT22;2239;48.152;11.584;2023-11-22T15:50:18;3.40;99.90
4453;DHT22;2239;48.152;11.584;2023-11-22T15:52:43;3.50;99.90
4453;DHT22;2239;48.152;11.584;2023-11-22T15:55:09;3.50;99.90
4453;DHT22;2239;48.152;11.584;2023-11-22T15:57:35;3.60;99.90
4453;DHT22;2239;48.152;11.584;2023-11-22T16:00:01;3.70;99.90
4453;DHT22;2239;48.152;11.584;2023-11-22T16:02:32;3.70;99.90